• Join FlightAware (Why Join?)
  • Login
  • US Flag 
01:50PM EST


 

Airport Tracker/Info


-or-


 

Live Flight TrackerFlight Track Log ✈ NGF5LP ✈ 13-Jun-2013 ✈ KBOS - KOGS

Flight Track Log - Related Links

Times and Time Zones

All times are in EDT time to prevent confusion due to time zone crossing. See the NGF5LP flight status page for this flight to view local times or setup timezone preferences in your user account.

Time Position Orientation Groundspeed Altitude Reporting Facility
EDT Latitude Longitude Course Direction KTS MPH feet Rate Location/Type
08:47AM 42.3667 -71.0000 360° North 84 97 500  Level KA90
08:48AM 42.3833 -71.0000 360° North 91 105 1,300 1,140 Climbing KA90
08:49AM 42.4167 -71.0333 324° Northwest 117 135 2,500 1,080 Climbing KA90
08:50AM 42.4500 -71.0500 340° North 128 147 3,500 660 Climbing KA90
08:51AM 42.4833 -71.0667 340° North 138 159 4,000 360 Climbing KA90
08:52AM 42.5333 -71.0667 360° North 143 165 4,300 360 Climbing KA90
08:53AM 42.5500 -71.0667 360° North 139 160 4,700 780 Climbing KA90
08:54AM 42.6000 -71.0833 346° North 128 147 5,800 780 Climbing KA90
08:55AM 42.6333 -71.1167 324° Northwest 123 142 6,700 720 Climbing KA90
08:56AM 42.6500 -71.1333 324° Northwest 128 147 7,200 540 Climbing KA90
08:57AM 42.6833 -71.1667 324° Northwest 131 151 7,700 480 Climbing KA90
08:58AM 42.7000 -71.2000 304° West 127 146 8,300 540 Climbing KA90
08:59AM 42.7333 -71.2333 324° Northwest 124 143 9,000 600 Climbing KA90
09:00AM 42.7667 -71.2500 340° North 122 140 9,500 540 Climbing KA90
09:01AM 42.7833 -71.2833 304° West 123 142 10,100 240 Climbing KA90
09:02AM 42.8167 -71.3167 324° Northwest 139 160 10,000 -60 Descending KA90
09:03AM 42.8500 -71.3500 324° Northwest 143 165 10,000  Level KA90
09:04AM 42.8833 -71.3833 324° Northwest 139 160 10,000  Level KA90
09:05AM 42.9000 -71.4333 294° West 140 161 10,000  Level KA90
09:06AM 42.9167 -71.4833 294° West 141 162 10,000  Level KA90
09:07AM 42.9333 -71.5167 304° West 141 162 10,000  Level KA90
09:08AM 42.9667 -71.5667 312° West 141 162 10,000  Level KA90
09:09AM 42.9833 -71.6000 304° West 142 163 10,000  Level KA90
09:10AM 43.0019 -71.6508 297° West 145 167 10,000  Level Boston Center
09:11AM 43.0275 -71.7044 303° West 150 173 10,000  Level Boston Center
09:12AM 43.0464 -71.7469 301° West 150 173 10,000  Level Boston Center
09:13AM 43.0697 -71.7978 302° West 150 173 10,000  Level Boston Center
09:14AM 43.0886 -71.8375 303° West 150 173 10,100  Climbing Boston Center
09:15AM 43.1139 -71.8911 303° West 150 173 10,000 -60 Descending Boston Center
09:16AM 43.1328 -71.9308 303° West 145 167 10,000  Level Boston Center
09:17AM 43.1561 -71.9819 302° West 145 167 10,100  Climbing Boston Center
09:18AM 43.1750 -72.0217 303° West 145 167 10,000  Descending Boston Center
09:19AM 43.2000 -72.0728 304° West 145 167 10,100  Climbing Boston Center
09:20AM 43.2189 -72.1125 303° West 140 161 10,100 -60 Level Boston Center
09:21AM 43.2419 -72.1664 300° West 140 161 10,000  Descending Boston Center
09:22AM 43.2608 -72.2064 303° West 140 161 10,100  Climbing Boston Center
09:23AM 43.2839 -72.2547 303° West 140 161 10,100  Level Boston Center
09:24AM 43.3028 -72.3003 300° West 140 161 10,100  Level Boston Center
09:25AM 43.3256 -72.3458 305° West 140 161 10,100  Level Boston Center
09:26AM 43.3486 -72.3917 305° West 140 161 10,100 -60 Level Boston Center
09:27AM 43.3694 -72.4400 301° West 140 161 10,000  Descending Boston Center
09:28AM 43.3903 -72.4886 301° West 140 161 10,100  Climbing Boston Center
09:29AM 43.4111 -72.5344 302° West 140 161 10,000  Descending Boston Center
09:30AM 43.4339 -72.5803 304° West 140 161 10,100  Climbing Boston Center
09:31AM 43.4547 -72.6289 301° West 140 161 10,100  Level Boston Center
09:32AM 43.4775 -72.6775 303° West 140 161 10,100  Level Boston Center
09:34AM 43.4961 -72.7264 298° West 140 161 10,100  Level Boston Center
09:35AM 43.5253 -72.7808 306° West 140 161 10,100  Level Boston Center
09:36AM 43.5458 -72.8297 300° West 140 161 10,100  Level Boston Center
09:37AM 43.5667 -72.8756 302° West 140 161 10,100  Level Boston Center
09:38AM 43.5872 -72.9272 299° West 140 161 10,100 -60 Level Boston Center
09:39AM 43.6119 -72.9733 307° West 140 161 10,000  Descending Boston Center
09:40AM 43.6306 -73.0225 298° West 140 161 10,100  Climbing Boston Center
09:41AM 43.6533 -73.0686 304° West 145 167 10,000  Descending Boston Center
09:42AM 43.6758 -73.1203 301° West 145 167 10,100  Climbing Boston Center
09:43AM 43.7047 -73.1608 315° West 145 167 10,100  Level Boston Center
09:44AM 43.7381 -73.1958 323° Northwest 151 174 10,100  Level Boston Center
09:45AM 43.7731 -73.2308 324° Northwest 151 174 10,100  Level Boston Center
09:46AM 43.8083 -73.2628 327° Northwest 151 174 10,100  Level Boston Center
09:47AM 43.8433 -73.3008 322° Northwest 151 174 10,100  Level Boston Center
09:48AM 43.8786 -73.3358 324° Northwest 151 174 10,100  Level Boston Center
09:49AM 43.9136 -73.3708 324° Northwest 151 174 10,100  Level Boston Center
09:50AM 43.9469 -73.4061 323° Northwest 151 174 10,100  Level Boston Center
09:51AM 43.9819 -73.4383 326° Northwest 151 174 10,100  Level Boston Center
09:52AM 44.0108 -73.4822 312° West 145 167 10,100  Level Boston Center
09:53AM 44.0375 -73.5289 308° West 150 173 10,100  Level Boston Center
09:54AM 44.0642 -73.5728 310° West 155 178 10,100  Level Boston Center
09:55AM 44.0928 -73.6194 310° West 160 184 10,100  Level Boston Center
09:56AM 44.1194 -73.6661 309° West 160 184 10,100  Level Boston Center
09:57AM 44.1481 -73.7103 312° West 160 184 10,100  Level Boston Center
09:58AM 44.1747 -73.7542 310° West 160 184 10,100 -60 Level Boston Center
09:59AM 44.2033 -73.7983 312° West 160 184 10,000 -60 Descending Boston Center
10:00AM 44.2319 -73.8453 310° West 160 184 10,000  Level Boston Center
10:01AM 44.2606 -73.8925 310° West 160 184 10,000  Level Boston Center
10:02AM 44.2892 -73.9394 310° West 160 184 10,000  Level Boston Center
10:03AM 44.3156 -73.9867 308° West 160 184 10,000  Level Boston Center
10:04AM 44.3461 -74.0339 312° West 160 184 10,000 -240 Level Boston Center
10:05AM 44.3747 -74.0811 310° West 160 184 9,600 -480 Descending Boston Center
10:06AM 44.4072 -74.1400 308° West 160 184 9,100 -600 Descending Boston Center
10:07AM 44.4375 -74.1933 308° West 166 191 8,500 -600 Descending Boston Center
10:08AM 44.4681 -74.2436 310° West 166 191 8,000 -600 Descending Boston Center
10:09AM 44.5025 -74.2972 312° West 171 197 7,400 -540 Descending Boston Center
10:10AM 44.5331 -74.3533 307° West 176 203 7,000 -240 Descending Boston Center
10:11AM 44.5403 -74.4178 279° West 169 194 7,000  Level Boston Center
10:12AM 44.5494 -74.4819 281° West 169 194 7,000 -60 Level Boston Center
10:13AM 44.5586 -74.5494 281° West 169 194 6,900 -120 Descending Boston Center
10:14AM 44.5681 -74.6108 282° West 164 189 6,800 -60 Descending Boston Center
10:15AM 44.5750 -74.6753 279° West 164 189 6,800  Level Boston Center
10:16AM 44.5861 -74.7544 281° West 164 189 6,900  Climbing Boston Center
10:17AM 44.5972 -74.8192 284° West 164 189 6,800 -60 Descending Boston Center
10:18AM 44.6064 -74.8836 281° West 164 189 6,800  Level Boston Center
10:19AM 44.6153 -74.9511 281° West 164 189 6,800 -60 Level Boston Center
10:20AM 44.6222 -75.0097 279° West 164 189 6,700 -300 Descending Boston Center
10:21AM 44.6314 -75.0742 281° West 169 194 6,200 -600 Descending Boston Center
10:22AM 44.6400 -75.1447 280° West 164 189 5,600 -600 Descending Boston Center
10:23AM 44.6469 -75.2064 279° West 164 189 5,000 -660 Descending Boston Center
10:24AM 44.6558 -75.2650 282° West 164 189 4,300 -600 Descending Boston Center
10:25AM 44.6589 -75.3178 275° West 164 189 3,800 -540 Descending Boston Center